Time;durP1;ratioP1;P1;durP2;ratioP2;P2;SDS_P1;SDS_P2;PMS_P1;PMS_P2;Temp;Humidity;BMP_temperature;BMP_pressure;BME280_temperature;BME280_humidity;BME280_pressure;Samples;Min_cycle;Max_cycle;Signal;HPM_P1;HPM_P2
2022/03/19 00:00:45;;;;;;;23.35;8.25;;;;;;;5.05;62.64;104656.47;4961829;28;20452;-78
2022/03/19 00:03:10;;;;;;;16.80;7.00;;;;;;;5.03;62.37;104653.94;4964940;28;20089;-79
2022/03/19 00:05:36;;;;;;;18.55;7.07;;;;;;;4.97;62.38;104659.69;4964690;28;20026;-78
2022/03/19 00:08:02;;;;;;;17.05;6.93;;;;;;;4.94;61.89;104659.94;4969020;28;20027;-77
2022/03/19 00:10:28;;;;;;;16.85;7.45;;;;;;;4.92;61.94;104653.03;4969621;28;20114;-78
2022/03/19 00:12:54;;;;;;;18.52;6.88;;;;;;;4.88;61.82;104656.91;4967498;28;20110;-77
2022/03/19 00:15:20;;;;;;;19.98;7.13;;;;;;;4.83;61.95;104665.19;4962875;28;20384;-77
2022/03/19 00:17:46;;;;;;;22.73;7.20;;;;;;;4.79;61.66;104661.06;4967431;28;20035;-77
2022/03/19 00:20:12;;;;;;;22.00;7.90;;;;;;;4.72;61.76;104662.50;4963687;28;20557;-78
2022/03/19 00:22:38;;;;;;;13.93;6.80;;;;;;;4.62;62.01;104658.81;4961955;28;20062;-77
2022/03/19 00:25:05;;;;;;;26.88;8.93;;;;;;;4.55;62.09;104656.63;4961118;28;20026;-78
2022/03/19 00:27:31;;;;;;;29.98;10.65;;;;;;;4.42;62.58;104650.50;4964414;28;20137;-77
2022/03/19 00:29:56;;;;;;;35.30;12.80;;;;;;;4.36;62.86;104645.66;4969581;28;20023;-77
2022/03/19 00:32:22;;;;;;;32.00;12.82;;;;;;;4.35;63.08;104648.41;4961689;28;20041;-78
2022/03/19 00:34:48;;;;;;;26.70;12.30;;;;;;;4.33;63.15;104645.03;4966615;28;20035;-77
2022/03/19 00:37:13;;;;;;;28.48;10.27;;;;;;;4.34;62.99;104652.03;4966004;28;20055;-77
2022/03/19 00:39:39;;;;;;;20.98;8.85;;;;;;;4.36;62.51;104650.97;4967464;28;20126;-77
2022/03/19 00:42:04;;;;;;;16.23;7.93;;;;;;;4.34;62.45;104646.72;4969385;28;20286;-78
2022/03/19 00:44:30;;;;;;;28.05;14.82;;;;;;;4.26;62.79;104649.91;4968375;28;21386;-77
2022/03/19 00:46:55;;;;;;;33.17;14.18;;;;;;;4.17;62.80;104650.59;4965316;28;20408;-77
2022/03/19 00:49:21;;;;;;;31.88;16.80;;;;;;;4.17;62.79;104639.97;4967686;28;20037;-78
2022/03/19 00:51:47;;;;;;;29.48;16.05;;;;;;;4.12;62.64;104636.78;4967457;28;20027;-78
2022/03/19 00:54:15;;;;;;;35.35;19.88;;;;;;;4.01;63.11;104642.03;4964090;28;20027;-77
2022/03/19 00:56:42;;;;;;;71.18;33.72;;;;;;;3.89;63.51;104633.97;4967320;28;20731;-77
2022/03/19 00:59:08;;;;;;;88.10;36.67;;;;;;;3.88;63.65;104634.94;4961908;28;20046;-77
2022/03/19 01:01:35;;;;;;;75.20;35.05;;;;;;;3.88;63.74;104632.28;4964007;28;20026;-77
2022/03/19 01:04:01;;;;;;;78.95;36.92;;;;;;;3.90;63.78;104630.38;4961210;28;20193;-77
2022/03/19 01:06:26;;;;;;;78.55;34.38;;;;;;;3.90;63.78;104632.16;4967929;28;20530;-76
2022/03/19 01:08:52;;;;;;;84.82;38.72;;;;;;;3.89;63.86;104633.97;4962358;28;20499;-78
2022/03/19 01:11:23;;;;;;;100.75;44.42;;;;;;;3.84;64.12;104633.47;4968103;28;20022;-77
2022/03/19 01:13:50;;;;;;;103.65;42.00;;;;;;;3.80;64.27;104631.16;4967933;28;20598;-77
2022/03/19 01:16:18;;;;;;;107.47;43.10;;;;;;;3.74;64.57;104626.25;4960640;28;20062;-77
2022/03/19 01:18:45;;;;;;;88.53;36.05;;;;;;;3.64;64.94;104626.06;4969445;28;20073;-77
2022/03/19 01:21:10;;;;;;;76.03;30.80;;;;;;;3.60;64.98;104629.91;4963921;28;20110;-77
2022/03/19 01:23:36;;;;;;;65.68;24.17;;;;;;;3.57;65.30;104638.88;4964582;28;20104;-78
2022/03/19 01:26:02;;;;;;;51.05;19.27;;;;;;;3.55;65.38;104634.66;4961091;28;20030;-77
2022/03/19 01:28:28;;;;;;;43.45;17.60;;;;;;;3.57;65.07;104630.09;4964686;28;20059;-77
2022/03/19 01:30:53;;;;;;;40.58;15.98;;;;;;;3.58;65.01;104631.78;4965744;28;20022;-78
2022/03/19 01:33:19;;;;;;;33.17;14.90;;;;;;;3.54;65.10;104627.66;4965951;28;20538;-77
2022/03/19 01:35:44;;;;;;;28.35;12.57;;;;;;;3.51;65.07;104631.38;4965591;28;20499;-77
2022/03/19 01:38:10;;;;;;;27.23;12.48;;;;;;;3.49;65.00;104627.97;4964952;28;20319;-78
2022/03/19 01:40:35;;;;;;;27.67;11.75;;;;;;;3.50;64.74;104620.88;4957705;28;20093;-77
2022/03/19 01:43:01;;;;;;;18.75;9.80;;;;;;;3.49;64.07;104622.69;4964185;28;20114;-77
2022/03/19 01:45:27;;;;;;;19.10;9.52;;;;;;;3.51;64.34;104620.75;4963326;28;20058;-78
2022/03/19 01:47:54;;;;;;;24.73;7.78;;;;;;;3.52;64.17;104621.59;4962528;28;20237;-77
2022/03/19 01:50:22;;;;;;;21.55;7.22;;;;;;;3.48;63.61;104620.13;4963307;28;20054;-77
2022/03/19 01:52:48;;;;;;;19.95;7.53;;;;;;;3.45;63.67;104615.91;4961521;28;20026;-77
2022/03/19 01:55:17;;;;;;;22.27;8.75;;;;;;;3.38;63.78;104613.75;4965618;28;20089;-77
2022/03/19 01:57:45;;;;;;;22.10;6.93;;;;;;;3.30;63.77;104617.78;4960929;28;20054;-78
2022/03/19 02:00:16;;;;;;;15.52;6.63;;;;;;;3.27;63.57;104607.41;4961423;28;20035;-77
2022/03/19 02:02:43;;;;;;;17.45;6.75;;;;;;;3.24;63.61;104601.47;4967082;28;20146;-77
2022/03/19 02:05:15;;;;;;;17.15;6.28;;;;;;;3.17;63.71;104605.47;4958032;28;20113;-77
2022/03/19 02:07:42;;;;;;;17.80;7.43;;;;;;;3.10;64.25;104599.75;4965174;28;20035;-77
2022/03/19 02:10:09;;;;;;;14.30;6.32;;;;;;;3.05;64.49;104596.56;4964037;28;20121;-77
2022/03/19 02:12:36;;;;;;;18.42;6.72;;;;;;;3.06;64.06;104595.63;4963273;28;20112;-77
2022/03/19 02:15:02;;;;;;;12.98;5.35;;;;;;;3.07;64.02;104599.97;4959179;28;20031;-77
2022/03/19 02:17:28;;;;;;;12.93;5.18;;;;;;;3.04;64.22;104594.88;4967578;28;20026;-77
2022/03/19 02:19:55;;;;;;;14.98;5.93;;;;;;;2.98;64.44;104596.13;4962429;28;20048;-77
2022/03/19 02:22:24;;;;;;;18.13;5.70;;;;;;;2.95;64.49;104598.16;4963282;28;20035;-77
2022/03/19 02:27:36;;;;;;;16.50;5.95;;;;;;;2.96;64.13;104602.50;4956870;28;20261;-77
2022/03/19 02:30:04;;;;;;;13.60;5.38;;;;;;;2.94;64.08;104596.47;4959380;28;20169;-76
2022/03/19 02:32:30;;;;;;;16.17;5.35;;;;;;;2.89;63.85;104595.94;4963590;28;20031;-77
2022/03/19 02:34:55;;;;;;;17.35;5.55;;;;;;;2.84;64.23;104592.72;4967003;28;20458;-77
2022/03/19 02:37:21;;;;;;;16.27;5.75;;;;;;;2.79;63.99;104600.13;4958046;28;20547;-77
2022/03/19 02:39:47;;;;;;;12.25;5.00;;;;;;;2.74;64.68;104592.50;4959946;28;20041;-77
2022/03/19 02:42:16;;;;;;;11.55;4.40;;;;;;;2.73;64.56;104591.66;4962750;28;20027;-77
2022/03/19 02:44:42;;;;;;;9.80;5.05;;;;;;;2.72;64.58;104589.97;4958913;28;20482;-77
2022/03/19 02:47:08;;;;;;;18.13;4.88;;;;;;;2.70;65.17;104591.88;4958484;28;20105;-77
2022/03/19 02:49:35;;;;;;;15.40;4.05;;;;;;;2.70;65.17;104594.50;4960600;28;20138;-77
2022/03/19 02:52:01;;;;;;;11.18;4.43;;;;;;;2.69;65.25;104589.28;4961519;28;20039;-77
2022/03/19 02:54:29;;;;;;;18.40;4.78;;;;;;;2.65;65.51;104588.66;4958536;28;20133;-76
2022/03/19 02:56:56;;;;;;;17.77;5.32;;;;;;;2.62;65.90;104577.41;4963431;28;20053;-76
2022/03/19 02:59:26;;;;;;;17.88;4.78;;;;;;;2.55;66.36;104582.28;4968238;28;20022;-76
2022/03/19 03:01:55;;;;;;;13.23;4.13;;;;;;;2.48;66.72;104591.56;4972662;28;20500;-77
2022/03/19 03:04:21;;;;;;;12.45;4.63;;;;;;;2.48;66.81;104583.63;4961651;28;20054;-77
2022/03/19 03:06:49;;;;;;;14.82;4.30;;;;;;;2.41;67.50;104584.97;4964937;28;20996;-77
2022/03/19 03:09:18;;;;;;;13.77;3.70;;;;;;;2.34;67.78;104584.53;4960681;28;20132;-76
2022/03/19 03:11:44;;;;;;;13.75;3.92;;;;;;;2.34;68.10;104583.69;4965801;28;20026;-76
2022/03/19 03:14:10;;;;;;;15.02;3.95;;;;;;;2.34;68.06;104581.06;4966325;28;20041;-76
2022/03/19 03:16:37;;;;;;;11.60;3.60;;;;;;;2.33;68.13;104588.09;4964455;28;20078;-76
2022/03/19 03:19:07;;;;;;;14.70;3.78;;;;;;;2.36;67.74;104582.66;4971440;28;20081;-76
2022/03/19 03:21:34;;;;;;;11.77;4.00;;;;;;;2.42;67.63;104584.03;4972887;28;20125;-77
2022/03/19 03:24:01;;;;;;;19.30;4.43;;;;;;;2.42;67.02;104573.44;4968034;28;20073;-77
2022/03/19 03:26:27;;;;;;;14.10;4.18;;;;;;;2.42;67.11;104581.38;4962471;28;20042;-77
2022/03/19 03:28:53;;;;;;;12.30;5.35;;;;;;;2.41;66.77;104579.69;4966986;28;20026;-77
2022/03/19 03:31:18;;;;;;;11.85;4.57;;;;;;;2.40;66.53;104572.69;4975223;28;20023;-76
2022/03/19 03:33:44;;;;;;;18.63;4.78;;;;;;;2.39;66.37;104585.09;4965078;28;20038;-77
2022/03/19 03:36:09;;;;;;;12.75;4.60;;;;;;;2.36;66.27;104585.28;4964147;28;20022;-76
2022/03/19 03:38:35;;;;;;;12.20;5.07;;;;;;;2.33;66.38;104580.16;4966611;28;20038;-76
2022/03/19 03:41:01;;;;;;;18.58;4.97;;;;;;;2.31;66.23;104581.22;4968683;28;20404;-76
2022/03/19 03:43:27;;;;;;;11.00;4.45;;;;;;;2.28;65.94;104579.63;4968249;28;20118;-76
2022/03/19 03:45:52;;;;;;;11.20;4.10;;;;;;;2.21;66.52;104569.56;4963486;28;20022;-76
2022/03/19 03:48:18;;;;;;;11.15;3.78;;;;;;;2.11;66.55;104572.78;4969254;28;20548;-76
2022/03/19 03:50:44;;;;;;;11.90;4.30;;;;;;;2.07;67.31;104570.44;4969750;28;20081;-76
2022/03/19 03:53:10;;;;;;;14.07;4.32;;;;;;;2.01;67.28;104574.34;4967924;28;20026;-76
2022/03/19 03:55:37;;;;;;;12.57;3.42;;;;;;;1.97;67.73;104570.16;4964023;28;20185;-76
2022/03/19 03:58:04;;;;;;;10.75;3.45;;;;;;;1.99;67.12;104576.22;4966109;28;20462;-75
2022/03/19 04:00:30;;;;;;;12.27;3.95;;;;;;;2.02;66.54;104578.69;4968029;28;20488;-76
2022/03/19 04:02:56;;;;;;;12.52;4.38;;;;;;;2.01;66.53;104576.97;4962556;28;20035;-75
2022/03/19 04:05:23;;;;;;;6.80;3.15;;;;;;;2.00;66.23;104574.44;4961020;28;20042;-76
2022/03/19 04:07:48;;;;;;;10.63;3.47;;;;;;;1.99;66.25;104578.03;4967424;28;20504;-76
2022/03/19 04:10:14;;;;;;;12.35;3.60;;;;;;;1.93;66.48;104565.19;4967520;28;20026;-76
2022/03/19 04:12:40;;;;;;;9.75;3.28;;;;;;;1.84;67.45;104571.06;4966856;28;20037;-75
2022/03/19 04:15:06;;;;;;;11.90;3.40;;;;;;;1.79;67.64;104563.41;4961452;28;20034;-76
2022/03/19 04:17:33;;;;;;;7.53;3.00;;;;;;;1.75;68.03;104561.91;4969546;28;20787;-76
2022/03/19 04:19:58;;;;;;;11.05;3.28;;;;;;;1.74;68.35;104563.69;4968311;28;20050;-76
2022/03/19 04:22:32;;;;;;;14.63;2.83;;;;;;;1.77;68.03;104562.66;4960303;28;20624;-76
2022/03/19 04:24:57;;;;;;;10.02;3.60;;;;;;;1.78;67.37;104559.91;4965020;28;20018;-75
2022/03/19 04:27:23;;;;;;;13.30;4.10;;;;;;;1.77;67.06;104557.38;4964096;28;20045;-75
2022/03/19 04:29:49;;;;;;;18.23;4.10;;;;;;;1.70;67.59;104554.28;4966443;28;20273;-75
2022/03/19 04:32:14;;;;;;;13.00;3.58;;;;;;;1.66;67.95;104560.69;4965256;28;20084;-75
2022/03/19 04:34:40;;;;;;;10.45;2.70;;;;;;;1.64;68.37;104559.94;4967970;28;20026;-76
2022/03/19 04:37:06;;;;;;;9.68;2.72;;;;;;;1.67;67.99;104565.03;4963308;28;20067;-75
2022/03/19 04:39:32;;;;;;;8.32;2.90;;;;;;;1.69;67.99;104554.38;4965096;28;20022;-75
2022/03/19 04:41:57;;;;;;;10.05;2.78;;;;;;;1.69;67.94;104557.84;4968419;28;20029;-75
2022/03/19 04:44:23;;;;;;;12.30;2.83;;;;;;;1.71;67.97;104553.31;4967923;28;20019;-75
2022/03/19 04:46:49;;;;;;;9.90;2.55;;;;;;;1.69;67.46;104557.84;4966324;28;20029;-75
2022/03/19 04:49:14;;;;;;;6.85;1.80;;;;;;;1.69;67.21;104563.16;4968889;28;20062;-75
2022/03/19 04:51:41;;;;;;;8.93;2.28;;;;;;;1.68;66.84;104563.25;4969608;28;20513;-75
2022/03/19 04:54:07;;;;;;;7.57;2.58;;;;;;;1.65;67.12;104563.44;4967884;28;20382;-75
2022/03/19 04:56:32;;;;;;;9.00;3.25;;;;;;;1.61;67.61;104567.19;4963980;28;20465;-75
2022/03/19 04:59:00;;;;;;;11.38;2.10;;;;;;;1.56;67.09;104567.50;4967414;28;20105;-75
2022/03/19 05:01:30;;;;;;;12.75;2.70;;;;;;;1.51;67.41;104570.44;4968075;28;20110;-75
2022/03/19 05:03:56;;;;;;;15.68;3.15;;;;;;;1.48;67.81;104570.63;4960731;28;20107;-75
2022/03/19 05:06:22;;;;;;;8.25;2.00;;;;;;;1.49;67.58;104571.47;4965708;28;20452;-75
2022/03/19 05:11:12;;;;;;;6.85;2.78;;;;;;;1.50;67.45;104567.88;4969137;28;20030;-74
2022/03/19 05:11:34;;;;;;;13.43;3.50;;;;;;;1.46;67.19;104569.88;4962286;28;20043;-75
2022/03/19 05:14:00;;;;;;;13.45;3.10;;;;;;;1.41;68.08;104568.44;4963997;28;20085;-75
2022/03/19 05:16:25;;;;;;;10.63;2.47;;;;;;;1.39;67.90;104568.53;4965624;28;20046;-75
2022/03/19 05:18:51;;;;;;;10.15;2.60;;;;;;;1.40;67.55;104572.88;4966948;28;20022;-74
2022/03/19 05:21:17;;;;;;;7.55;2.47;;;;;;;1.42;67.05;104572.78;4963168;28;20504;-75
2022/03/19 05:23:45;;;;;;;10.15;3.47;;;;;;;1.41;66.75;104577.22;4967590;28;20034;-75
2022/03/19 05:26:11;;;;;;;10.40;2.65;;;;;;;1.39;66.83;104579.09;4966236;28;20377;-74
2022/03/19 05:28:37;;;;;;;7.00;2.13;;;;;;;1.39;66.85;104587.03;4967573;28;20140;-74
2022/03/19 05:31:03;;;;;;;8.40;2.45;;;;;;;1.38;66.55;104590.63;4965051;28;20113;-74
2022/03/19 05:36:18;;;;;;;19.42;3.10;;;;;;;1.36;67.03;104589.88;4952665;28;20051;-74
2022/03/19 05:38:43;;;;;;;8.98;2.33;;;;;;;1.36;67.31;104589.88;4966001;28;20029;-75
2022/03/19 05:41:10;;;;;;;7.88;2.58;;;;;;;1.37;67.28;104586.28;4964610;28;20085;-75
2022/03/19 05:43:36;;;;;;;8.25;2.58;;;;;;;1.40;67.40;104585.22;4966544;28;20030;-75
2022/03/19 05:46:02;;;;;;;14.10;2.50;;;;;;;1.42;67.30;104578.91;4961853;28;20034;-74
2022/03/19 05:48:28;;;;;;;6.38;1.92;;;;;;;1.44;67.33;104579.69;4963526;28;20035;-75
2022/03/19 05:50:54;;;;;;;7.45;2.13;;;;;;;1.50;67.28;104575.81;4963093;28;20195;-74
2022/03/19 05:53:19;;;;;;;7.28;1.95;;;;;;;1.56;67.17;104587.78;4961892;28;20400;-74
2022/03/19 05:55:45;;;;;;;11.70;2.53;;;;;;;1.62;66.89;104583.00;4963239;28;20030;-74
2022/03/19 05:58:10;;;;;;;5.78;1.90;;;;;;;1.68;66.68;104579.09;4966351;28;20110;-75
2022/03/19 06:00:36;;;;;;;10.90;2.00;;;;;;;1.74;66.87;104578.72;4965370;28;20064;-75
2022/03/19 06:03:01;;;;;;;7.00;2.50;;;;;;;1.81;67.28;104577.41;4967405;28;20027;-74
2022/03/19 06:05:27;;;;;;;7.07;2.17;;;;;;;1.89;67.21;104571.63;4963183;28;20117;-76
2022/03/19 06:07:54;;;;;;;12.27;2.45;;;;;;;1.97;67.60;104578.09;4963742;28;20027;-75
2022/03/19 06:10:19;;;;;;;6.40;2.42;;;;;;;2.05;67.79;104577.63;4967515;28;20042;-75
2022/03/19 06:12:48;;;;;;;16.10;2.95;;;;;;;2.13;68.03;104576.16;4964824;28;20037;-76
2022/03/19 06:15:14;;;;;;;16.38;3.67;;;;;;;2.25;67.84;104579.84;4962127;28;20038;-76
2022/03/19 06:17:39;;;;;;;10.70;3.83;;;;;;;2.31;68.24;104583.88;4964614;28;20023;-76
2022/03/19 06:20:06;;;;;;;9.95;2.67;;;;;;;2.37;68.54;104583.50;4965298;28;20073;-76
2022/03/19 06:22:32;;;;;;;11.43;2.50;;;;;;;2.43;69.01;104577.78;4965700;28;20116;-76
2022/03/19 06:24:57;;;;;;;14.98;4.25;;;;;;;2.50;68.86;104584.38;4964645;28;20449;-76
2022/03/19 06:27:23;;;;;;;10.68;2.75;;;;;;;2.56;69.15;104580.47;4966995;28;20460;-76
2022/03/19 06:29:49;;;;;;;10.85;3.42;;;;;;;2.63;69.39;104585.25;4965026;28;20427;-76
2022/03/19 06:32:20;;;;;;;10.77;3.47;;;;;;;2.72;69.42;104591.75;4966839;28;20037;-77
2022/03/19 06:34:49;;;;;;;9.48;2.60;;;;;;;2.80;69.84;104588.59;4963756;28;20086;-77
2022/03/19 06:37:20;;;;;;;10.60;3.05;;;;;;;2.88;69.88;104587.13;4965690;28;20488;-76
2022/03/19 06:39:54;;;;;;;12.90;3.38;;;;;;;2.96;69.74;104591.91;4965452;28;20037;-76
2022/03/19 06:42:21;;;;;;;13.33;4.10;;;;;;;3.05;69.94;104583.31;4965768;28;20038;-77
2022/03/19 06:44:46;;;;;;;10.60;3.22;;;;;;;3.11;70.58;104590.88;4961863;28;20783;-78
2022/03/19 06:47:12;;;;;;;15.93;4.20;;;;;;;3.20;70.30;104594.66;4966887;28;20031;-77
2022/03/19 06:49:38;;;;;;;14.27;3.90;;;;;;;3.31;70.33;104593.00;4965378;28;20294;-77
2022/03/19 06:52:04;;;;;;;11.88;4.25;;;;;;;3.42;70.41;104594.06;4970869;28;20444;-77
2022/03/19 06:54:30;;;;;;;12.02;3.75;;;;;;;3.52;70.34;104590.63;4968015;28;20031;-77
2022/03/19 06:56:55;;;;;;;8.13;2.28;;;;;;;3.66;70.64;104597.63;4965748;28;20374;-76
2022/03/19 06:59:21;;;;;;;5.00;1.95;;;;;;;3.79;70.68;104598.47;4967650;28;20019;-76
2022/03/19 07:01:46;;;;;;;7.40;1.80;;;;;;;3.92;70.87;104599.25;4970635;28;20037;-76
2022/03/19 07:04:12;;;;;;;7.05;1.90;;;;;;;4.04;70.78;104592.22;4967103;28;20278;-77
2022/03/19 07:06:37;;;;;;;7.95;2.35;;;;;;;4.17;70.92;104586.88;4960836;28;20422;-77
2022/03/19 07:09:04;;;;;;;8.70;2.05;;;;;;;4.29;70.84;104585.97;4969226;28;20039;-76
2022/03/19 07:11:31;;;;;;;16.40;3.50;;;;;;;4.39;70.97;104597.63;4971965;28;20022;-76
2022/03/19 07:13:57;;;;;;;11.38;2.70;;;;;;;4.50;70.64;104599.50;4968685;28;20300;-77
2022/03/19 07:16:23;;;;;;;11.32;2.95;;;;;;;4.61;70.58;104596.88;4974095;28;20066;-76
2022/03/19 07:18:49;;;;;;;8.38;2.22;;;;;;;4.74;71.01;104604.78;4963368;28;20061;-77
2022/03/19 07:21:15;;;;;;;6.85;2.22;;;;;;;4.87;70.91;104602.06;4965782;28;20038;-77
2022/03/19 07:23:42;;;;;;;7.78;2.03;;;;;;;4.97;70.88;104598.56;4967505;28;20029;-77
2022/03/19 07:26:08;;;;;;;10.70;2.63;;;;;;;5.09;70.79;104592.31;4968543;28;20089;-76
2022/03/19 07:28:33;;;;;;;8.10;2.75;;;;;;;5.20;70.76;104601.25;4965460;28;20028;-77
2022/03/19 07:31:00;;;;;;;10.90;2.25;;;;;;;5.28;70.48;104596.22;4969768;28;20027;-76
2022/03/19 07:33:27;;;;;;;9.70;1.92;;;;;;;5.37;70.47;104599.00;4964287;28;20022;-78
2022/03/19 07:35:53;;;;;;;8.48;2.00;;;;;;;5.44;70.20;104602.88;4967726;28;20101;-77
2022/03/19 07:38:18;;;;;;;6.95;2.20;;;;;;;5.56;70.32;104590.41;4967002;28;20046;-77
2022/03/19 07:43:29;;;;;;;6.75;2.13;;;;;;;5.80;70.09;104606.28;4965751;28;20106;-77
2022/03/19 07:45:55;;;;;;;9.13;2.17;;;;;;;5.88;69.96;104600.31;4964763;28;20396;-77
2022/03/19 07:48:20;;;;;;;7.90;2.17;;;;;;;5.98;69.43;104615.47;4964017;28;20038;-77
2022/03/19 07:50:46;;;;;;;9.15;2.20;;;;;;;6.09;69.27;104613.75;4967580;28;20439;-78
2022/03/19 07:53:12;;;;;;;13.40;2.38;;;;;;;6.16;69.36;104602.50;4966541;28;20512;-76
2022/03/19 07:55:38;;;;;;;10.70;2.50;;;;;;;6.29;69.40;104605.00;4965232;28;20031;-78
2022/03/19 07:58:04;;;;;;;7.45;2.08;;;;;;;6.42;69.14;104615.47;4964160;28;20032;-76
2022/03/19 08:00:30;;;;;;;8.45;2.03;;;;;;;6.57;68.75;104611.56;4967008;28;20023;-77
2022/03/19 08:02:56;;;;;;;12.95;2.40;;;;;;;6.70;68.64;104609.56;4966072;28;20035;-76
2022/03/19 08:05:22;;;;;;;10.07;2.78;;;;;;;6.80;68.32;104615.81;4964806;28;20027;-77
2022/03/19 08:07:47;;;;;;;10.23;2.63;;;;;;;6.92;68.36;104613.94;4968751;28;20094;-77
2022/03/19 08:10:13;;;;;;;10.90;2.90;;;;;;;7.00;67.89;104626.63;4969091;28;20034;-76
2022/03/19 08:12:41;;;;;;;9.95;3.38;;;;;;;7.06;67.89;104628.78;4964788;28;20633;-76
2022/03/19 08:15:08;;;;;;;7.07;2.70;;;;;;;7.16;67.64;104622.53;4958379;28;20026;-76
2022/03/19 08:17:39;;;;;;;11.57;3.05;;;;;;;7.28;67.56;104613.47;4963799;28;20018;-77
2022/03/19 08:20:08;;;;;;;11.05;2.50;;;;;;;7.43;67.27;104605.97;4966588;28;20444;-76
2022/03/19 08:22:35;;;;;;;11.75;2.80;;;;;;;7.50;66.82;104607.13;4961080;28;20488;-76
2022/03/19 08:25:01;;;;;;;7.15;2.50;;;;;;;7.57;67.09;104607.44;4964934;28;20045;-77
2022/03/19 08:27:27;;;;;;;8.02;2.50;;;;;;;7.71;66.57;104606.22;4967321;28;20121;-77
2022/03/19 08:29:54;;;;;;;9.35;3.00;;;;;;;7.80;66.52;104594.75;4969740;28;20037;-76
2022/03/19 08:32:20;;;;;;;8.25;2.60;;;;;;;7.92;66.06;104599.00;4964744;28;20038;-77
2022/03/19 08:34:47;;;;;;;8.55;3.15;;;;;;;8.00;65.81;104604.50;4966275;28;20034;-76
2022/03/19 08:37:12;;;;;;;7.40;2.92;;;;;;;8.06;65.54;104603.94;4967340;28;20026;-76
2022/03/19 08:42:22;;;;;;;10.13;2.90;;;;;;;8.27;65.08;104605.69;4968163;28;20448;-77
2022/03/19 08:44:48;;;;;;;7.78;2.40;;;;;;;8.33;64.31;104603.28;4965964;28;20030;-77
2022/03/19 08:47:14;;;;;;;8.55;3.10;;;;;;;8.39;64.36;104602.75;4966113;28;20571;-77
2022/03/19 08:49:40;;;;;;;3.67;2.03;;;;;;;8.46;64.01;104600.38;4966100;28;20112;-76
2022/03/19 08:52:06;;;;;;;8.52;2.60;;;;;;;8.59;64.05;104597.41;4967944;28;20030;-77
2022/03/19 08:54:31;;;;;;;12.70;2.97;;;;;;;8.75;63.50;104600.38;4961807;28;20023;-76
2022/03/19 08:56:57;;;;;;;10.82;2.95;;;;;;;8.87;63.23;104603.75;4963655;28;20487;-75
2022/03/19 08:59:22;;;;;;;14.38;4.07;;;;;;;8.95;62.62;104601.19;4966164;28;20046;-76
2022/03/19 09:01:50;;;;;;;10.98;2.97;;;;;;;9.02;62.25;104603.16;4968193;28;20050;-75
2022/03/19 09:04:16;;;;;;;8.70;3.17;;;;;;;9.09;62.36;104596.22;4963391;28;20060;-77
2022/03/19 09:06:42;;;;;;;11.00;2.83;;;;;;;9.20;61.84;104605.94;4964591;28;20035;-75
2022/03/19 09:09:09;;;;;;;9.98;3.15;;;;;;;9.34;61.67;104604.63;4965112;28;20039;-76
2022/03/19 09:11:36;;;;;;;6.45;2.65;;;;;;;9.41;61.44;104595.03;4965418;28;20552;-81
2022/03/19 09:14:04;;;;;;;8.20;3.00;;;;;;;9.53;61.44;104593.84;4965541;28;20114;-79
2022/03/19 09:16:30;;;;;;;7.97;2.53;;;;;;;9.64;61.19;104599.00;4965627;28;20464;-79
2022/03/19 09:18:56;;;;;;;7.45;2.60;;;;;;;9.76;60.67;104602.34;4960496;28;20113;-79
2022/03/19 09:21:22;;;;;;;7.15;2.50;;;;;;;9.83;60.75;104595.38;4964181;28;20058;-79
2022/03/19 09:23:51;;;;;;;6.82;2.63;;;;;;;9.93;60.09;104590.81;4965689;28;20030;-79
2022/03/19 09:26:17;;;;;;;11.13;3.20;;;;;;;9.96;59.94;104590.53;4963336;28;20035;-79
2022/03/19 09:28:45;;;;;;;6.85;2.35;;;;;;;10.05;59.66;104594.13;4960519;28;20059;-80
2022/03/19 09:31:12;;;;;;;18.58;3.70;;;;;;;10.12;59.59;104597.91;4964507;28;20516;-79
2022/03/19 09:33:39;;;;;;;7.65;2.90;;;;;;;10.16;59.46;104590.41;4961735;28;20108;-80
2022/03/19 09:36:06;;;;;;;7.18;2.15;;;;;;;10.23;58.88;104594.16;4965295;28;20026;-80
2022/03/19 09:38:31;;;;;;;7.10;3.30;;;;;;;10.32;58.85;104595.94;4963355;28;20105;-79
2022/03/19 09:40:58;;;;;;;6.35;3.00;;;;;;;10.38;58.75;104586.44;4962160;28;20067;-79
2022/03/19 09:43:24;;;;;;;8.15;2.95;;;;;;;10.49;58.83;104591.59;4965218;28;20073;-79
2022/03/19 09:45:51;;;;;;;7.78;2.60;;;;;;;10.63;58.19;104590.22;4963951;28;20092;-79
2022/03/19 09:48:16;;;;;;;5.90;2.70;;;;;;;10.75;58.00;104592.47;4964375;28;20177;-80
2022/03/19 09:50:43;;;;;;;5.75;2.67;;;;;;;10.84;57.51;104585.34;4959928;28;20112;-79
2022/03/19 09:53:11;;;;;;;7.28;2.53;;;;;;;10.98;57.28;104584.78;4962519;28;20034;-81
2022/03/19 09:55:40;;;;;;;7.53;2.95;;;;;;;11.11;56.87;104593.25;4969340;28;20145;-80
2022/03/19 09:58:06;;;;;;;10.13;2.90;;;;;;;11.20;56.53;104581.56;4968752;28;20035;-79
2022/03/19 10:00:32;;;;;;;8.15;2.60;;;;;;;11.30;56.54;104596.69;4968327;28;20608;-79
2022/03/19 10:03:02;;;;;;;9.75;2.85;;;;;;;11.39;56.27;104588.56;4963320;28;20317;-79
2022/03/19 10:08:36;;;;;;;7.15;3.58;;;;;;;11.56;55.35;104588.63;4966853;28;20092;-79
2022/03/19 10:11:04;;;;;;;6.75;2.58;;;;;;;11.69;54.92;104586.34;4972405;28;20515;-81
2022/03/19 10:13:30;;;;;;;9.02;2.70;;;;;;;11.80;54.76;104573.47;4959324;28;20074;-80
2022/03/19 10:15:56;;;;;;;6.53;2.40;;;;;;;11.85;54.26;104574.81;4961488;28;20035;-81
2022/03/19 10:18:29;;;;;;;8.02;2.47;;;;;;;11.81;53.19;104574.31;4968229;28;20026;-80
2022/03/19 10:20:58;;;;;;;6.78;2.45;;;;;;;11.90;53.53;104581.41;4971373;28;20039;-81
2022/03/19 10:23:39;;;;;;;10.20;3.20;;;;;;;11.97;52.59;104576.19;4968771;28;20038;-81
2022/03/19 10:26:05;;;;;;;6.70;2.88;;;;;;;12.02;52.42;104572.00;4974162;28;20027;-80
2022/03/19 10:28:33;;;;;;;6.78;3.55;;;;;;;12.00;52.03;104579.41;4972597;28;20026;-81
2022/03/19 10:30:59;;;;;;;7.05;2.95;;;;;;;11.94;51.84;104572.00;4968757;28;20035;-81
2022/03/19 10:33:27;;;;;;;10.10;3.15;;;;;;;11.88;51.94;104563.78;4967478;28;20085;-81
2022/03/19 10:36:07;;;;;;;10.55;3.38;;;;;;;11.87;51.06;104567.47;4972264;28;20485;-80
2022/03/19 10:38:44;;;;;;;5.97;3.20;;;;;;;11.94;51.24;104565.78;4968407;28;20023;-82
2022/03/19 10:41:12;;;;;;;7.65;3.03;;;;;;;12.11;51.88;104564.81;4968579;28;20105;-79
2022/03/19 10:43:38;;;;;;;7.15;3.00;;;;;;;12.21;51.05;104570.91;4970301;28;20030;-78
2022/03/19 10:46:04;;;;;;;6.50;2.60;;;;;;;12.25;50.37;104566.84;4967105;28;20037;-77
2022/03/19 10:48:30;;;;;;;4.47;2.58;;;;;;;12.30;50.30;104564.50;4967175;28;20170;-78
2022/03/19 10:51:02;;;;;;;9.45;3.55;;;;;;;12.30;49.59;104580.63;4972088;28;20504;-77
2022/03/19 10:53:27;;;;;;;9.32;3.60;;;;;;;12.26;49.79;104563.16;4970835;28;20027;-80
2022/03/19 10:55:54;;;;;;;11.18;2.80;;;;;;;12.33;49.70;104553.41;4970644;28;20388;-78
2022/03/19 10:58:20;;;;;;;8.82;2.70;;;;;;;12.43;49.23;104555.09;4972478;28;20497;-78
2022/03/19 11:00:50;;;;;;;10.27;3.25;;;;;;;12.54;49.14;104557.44;4968055;28;20090;-78
2022/03/19 11:03:24;;;;;;;12.02;4.38;;;;;;;12.61;48.41;104556.63;4966139;28;20701;-78
2022/03/19 11:05:55;;;;;;;10.88;3.72;;;;;;;12.63;48.31;104554.59;4969699;28;20030;-79
2022/03/19 11:08:23;;;;;;;6.32;3.45;;;;;;;12.63;48.29;104551.06;4968905;28;20022;-78
2022/03/19 11:10:51;;;;;;;8.00;3.20;;;;;;;12.65;48.21;104549.03;4969567;28;21436;-78
2022/03/19 11:13:22;;;;;;;6.95;3.20;;;;;;;12.71;47.40;104549.19;4967022;28;20038;-78
2022/03/19 11:15:51;;;;;;;7.75;3.10;;;;;;;12.82;47.42;104549.88;4968663;28;20428;-78
2022/03/19 11:18:20;;;;;;;6.22;2.70;;;;;;;12.96;47.77;104541.94;4970198;28;20146;-81
2022/03/19 11:20:47;;;;;;;9.80;3.67;;;;;;;13.06;47.57;104543.59;4970403;28;20071;-79
2022/03/19 11:23:16;;;;;;;6.03;3.58;;;;;;;13.05;46.84;104541.91;4970312;28;20109;-79
2022/03/19 11:25:50;;;;;;;8.32;3.95;;;;;;;13.05;46.98;104531.13;4970452;28;20042;-80
2022/03/19 11:28:16;;;;;;;8.95;4.57;;;;;;;13.09;47.39;104538.69;4965637;28;20543;-81
2022/03/19 11:30:57;;;;;;;10.85;4.32;;;;;;;13.22;46.84;104540.88;4965089;28;20030;-80
2022/03/19 11:33:24;;;;;;;11.35;4.00;;;;;;;13.38;46.65;104531.91;4969317;28;20084;-79
2022/03/19 11:35:56;;;;;;;11.10;5.28;;;;;;;13.45;46.28;104519.41;4967259;28;20038;-79
2022/03/19 11:38:23;;;;;;;13.07;6.03;;;;;;;13.60;46.75;104526.56;4975259;28;20027;-79